createdAt,value
2023-03-16T00:03:25.537Z,23.53
2023-03-16T00:07:25.540Z,23.59
2023-03-16T00:11:25.632Z,23.62
2023-03-16T00:15:25.642Z,23.63
2023-03-16T00:19:25.688Z,23.62
2023-03-16T00:23:25.698Z,23.64
2023-03-16T00:27:25.784Z,23.63
2023-03-16T00:31:25.889Z,23.63
2023-03-16T00:35:25.907Z,23.60
2023-03-16T00:39:25.852Z,23.73
2023-03-16T00:43:25.877Z,23.65
2023-03-16T00:47:25.964Z,23.66
2023-03-16T00:51:25.944Z,23.74
2023-03-16T00:55:25.932Z,23.73
2023-03-16T00:59:26.040Z,23.74
2023-03-16T01:03:26.129Z,23.73
2023-03-16T01:07:26.094Z,23.73
2023-03-16T01:11:26.177Z,23.77
2023-03-16T01:15:26.277Z,23.74
2023-03-16T01:19:26.327Z,23.75
2023-03-16T01:23:26.362Z,23.77
2023-03-16T01:27:26.431Z,23.76
2023-03-16T01:31:26.464Z,23.80
2023-03-16T01:35:26.640Z,23.83
2023-03-16T01:39:26.624Z,23.81
2023-03-16T01:43:26.769Z,23.82
2023-03-16T01:47:26.841Z,23.82
2023-03-16T01:51:26.900Z,23.81
2023-03-16T01:55:27.035Z,23.85
2023-03-16T01:59:27.095Z,23.90
2023-03-16T02:03:27.115Z,23.89
2023-03-16T02:07:27.223Z,23.89
2023-03-16T02:11:27.245Z,23.89
2023-03-16T02:15:27.481Z,23.90
2023-03-16T02:19:27.415Z,23.87
2023-03-16T02:23:27.484Z,23.92
2023-03-16T02:27:27.565Z,23.90
2023-03-16T02:31:27.693Z,23.92
2023-03-16T02:35:27.782Z,23.96
2023-03-16T02:39:27.793Z,23.95
2023-03-16T02:43:27.879Z,23.92
2023-03-16T02:47:27.956Z,23.96
2023-03-16T02:51:28.018Z,23.94
2023-03-16T02:55:28.096Z,23.98
2023-03-16T02:59:28.202Z,24.01
2023-03-16T03:03:28.307Z,24.03
2023-03-16T03:07:28.297Z,24.00
2023-03-16T03:11:28.382Z,24.00
2023-03-16T03:15:28.516Z,24.00
2023-03-16T03:19:28.507Z,23.98
2023-03-16T03:23:28.620Z,24.02
2023-03-16T03:27:28.795Z,24.03
2023-03-16T03:31:28.820Z,24.00
2023-03-16T03:35:28.951Z,24.00
2023-03-16T03:39:29.024Z,24.05
2023-03-16T03:43:29.079Z,24.10
2023-03-16T03:47:29.230Z,24.01
2023-03-16T03:51:29.350Z,24.05
2023-03-16T03:55:29.414Z,24.08
2023-03-16T03:59:29.501Z,24.07
2023-03-16T04:03:29.655Z,24.02
2023-03-16T04:07:29.741Z,24.08
2023-03-16T04:11:29.712Z,24.09
2023-03-16T04:15:29.818Z,24.07
2023-03-16T04:19:29.910Z,24.09
2023-03-16T04:23:30.009Z,24.11
2023-03-16T04:27:30.093Z,24.06
2023-03-16T04:31:30.257Z,24.09
2023-03-16T04:35:30.404Z,24.11
2023-03-16T04:39:30.473Z,24.13
2023-03-16T04:43:30.522Z,24.13
2023-03-16T04:47:30.567Z,24.15
2023-03-16T04:51:30.679Z,24.14
2023-03-16T04:55:30.729Z,24.10
2023-03-16T04:59:30.827Z,24.13
2023-03-16T05:03:30.929Z,24.17
2023-03-16T05:07:31.100Z,24.01
2023-03-16T05:11:31.143Z,23.76
2023-03-16T05:15:31.282Z,23.63
2023-03-16T05:19:31.472Z,23.42
2023-03-16T05:23:31.693Z,23.23
2023-03-16T05:27:31.923Z,22.96
2023-03-16T05:31:32.180Z,22.84
2023-03-16T05:35:32.304Z,22.72
2023-03-16T05:39:32.369Z,22.71
2023-03-16T05:43:32.512Z,22.72
2023-03-16T05:47:32.678Z,22.70
2023-03-16T05:51:32.916Z,22.73
2023-03-16T05:55:32.759Z,22.75
2023-03-16T05:59:32.845Z,22.69
2023-03-16T06:03:32.947Z,22.72
2023-03-16T06:07:33.028Z,22.66
2023-03-16T06:11:33.129Z,22.64
2023-03-16T06:15:33.197Z,22.57
2023-03-16T06:19:33.214Z,22.53
2023-03-16T06:23:33.214Z,22.51
2023-03-16T06:27:33.325Z,22.45
2023-03-16T06:31:33.401Z,21.87
2023-03-16T06:35:33.446Z,21.86
2023-03-16T06:39:33.459Z,20.94
2023-03-16T06:43:33.913Z,20.86
2023-03-16T06:47:33.936Z,22.01
2023-03-16T06:51:33.727Z,22.26
2023-03-16T06:55:33.807Z,22.38
2023-03-16T06:59:33.846Z,22.48
2023-03-16T07:03:33.880Z,22.61
2023-03-16T07:07:33.882Z,22.72
2023-03-16T07:11:33.880Z,22.89
2023-03-16T07:15:33.894Z,22.98
2023-03-16T07:19:33.968Z,23.04
2023-03-16T07:23:34.143Z,23.10
2023-03-16T07:27:34.119Z,23.26
2023-03-16T07:31:34.136Z,23.37
2023-03-16T07:35:34.050Z,23.40
2023-03-16T07:39:34.465Z,23.23
2023-03-16T07:43:34.532Z,21.67
2023-03-16T07:47:33.965Z,21.23
2023-03-16T07:51:34.502Z,20.88
2023-03-16T07:55:33.910Z,21.08
2023-03-16T07:59:33.903Z,21.06
2023-03-16T08:03:34.033Z,21.15
2023-03-16T08:07:33.991Z,21.94
2023-03-16T08:11:33.773Z,21.97
2023-03-16T08:15:33.718Z,22.12
2023-03-16T08:19:33.731Z,22.37
2023-03-16T08:23:33.737Z,22.92
2023-03-16T08:27:34.018Z,22.63
2023-03-16T08:31:33.623Z,22.62
2023-03-16T08:35:34.030Z,22.47
2023-03-16T08:39:33.661Z,23.05
2023-03-16T08:43:33.660Z,23.29
2023-03-16T08:47:33.612Z,23.39
2023-03-16T08:51:33.975Z,23.38
2023-03-16T08:55:33.499Z,23.02
2023-03-16T08:59:33.490Z,22.95
2023-03-16T09:03:33.524Z,22.73
2023-03-16T09:07:33.433Z,22.44
2023-03-16T09:11:33.348Z,22.17
2023-03-16T09:15:33.484Z,21.96
2023-03-16T09:19:49.963Z,21.79
2023-03-16T09:23:34.392Z,21.74
2023-03-16T09:27:36.058Z,21.84
2023-03-16T09:31:33.208Z,18.42
2023-03-16T09:35:35.025Z,17.18
2023-03-16T09:39:33.126Z,17.11
2023-03-16T09:43:33.565Z,18.13
2023-03-16T09:47:36.524Z,19.33
2023-03-16T09:51:33.071Z,20.06
2023-03-16T09:55:32.931Z,20.59
2023-03-16T09:59:32.927Z,20.95
2023-03-16T10:03:33.080Z,21.40
2023-03-16T10:07:32.847Z,21.64
2023-03-16T10:11:32.797Z,21.81
2023-03-16T10:15:32.769Z,21.94
2023-03-16T10:19:33.050Z,21.80
2023-03-16T10:23:33.021Z,21.90
2023-03-16T10:27:32.681Z,21.89
2023-03-16T10:31:32.654Z,21.70
2023-03-16T10:35:33.027Z,22.08
2023-03-16T10:39:33.037Z,19.96
2023-03-16T10:43:32.549Z,18.74
2023-03-16T10:47:32.576Z,18.03
2023-03-16T10:51:32.764Z,17.81
2023-03-16T10:55:33.001Z,17.50
2023-03-16T10:59:32.955Z,17.16
2023-03-16T11:03:32.893Z,17.44
2023-03-16T11:07:32.859Z,17.80
2023-03-16T11:11:32.839Z,17.86
2023-03-16T11:15:33.588Z,18.51
2023-03-16T11:19:37.675Z,19.23
2023-03-16T11:23:32.689Z,19.89
2023-03-16T12:42:48.353Z,17.66
2023-03-16T12:46:48.397Z,17.90
2023-03-16T12:50:48.404Z,17.28
2023-03-16T12:54:48.465Z,17.34
2023-03-16T12:58:48.690Z,17.22
2023-03-16T13:02:48.650Z,17.06
2023-03-16T13:06:48.774Z,16.27
2023-03-16T13:10:48.955Z,16.06
2023-03-16T13:14:49.144Z,15.79
2023-03-16T13:18:49.360Z,15.75
2023-03-16T13:22:49.561Z,15.42
2023-03-16T20:34:55.471Z,20.94
2023-03-16T22:02:57.704Z,21.42
2023-03-16T22:06:57.583Z,21.41
2023-03-16T22:10:57.667Z,21.44
2023-03-16T22:14:57.752Z,21.45
2023-03-16T22:18:57.958Z,21.48
2023-03-16T22:22:57.980Z,21.48
2023-03-16T22:26:58.135Z,21.48
2023-03-16T22:30:58.161Z,21.51
2023-03-16T22:34:58.252Z,21.50
2023-03-16T22:38:58.334Z,21.53
2023-03-16T22:42:58.426Z,21.51
2023-03-16T22:46:58.530Z,21.57
2023-03-16T22:50:58.551Z,21.56
2023-03-16T22:54:58.703Z,21.54
2023-03-16T22:58:58.814Z,21.62
2023-03-16T23:02:58.963Z,21.54
